createdAt,value
2022-10-28T00:00:03.932Z,67.27
2022-10-28T00:02:53.681Z,67.08
2022-10-28T00:05:41.647Z,67.17
2022-10-28T00:08:30.101Z,67.17
2022-10-28T00:11:22.480Z,67.33
2022-10-28T00:14:11.143Z,67.31
2022-10-28T00:16:58.758Z,67.43
2022-10-28T00:19:50.400Z,67.36
2022-10-28T00:22:37.829Z,67.39
2022-10-28T00:25:25.727Z,67.37
2022-10-28T00:28:13.030Z,67.50
2022-10-28T00:31:06.720Z,67.53
2022-10-28T00:33:55.224Z,67.65
2022-10-28T00:36:46.349Z,67.65
2022-10-28T00:39:34.178Z,67.71
2022-10-28T00:42:23.738Z,67.53
2022-10-28T00:45:12.341Z,67.51
2022-10-28T00:48:02.524Z,67.62
2022-10-28T00:50:52.893Z,67.48
2022-10-28T00:53:43.172Z,67.52
2022-10-28T00:56:34.926Z,67.34
2022-10-28T00:59:28.153Z,67.60
2022-10-28T01:02:15.990Z,67.34
2022-10-28T01:05:04.476Z,67.32
2022-10-28T01:07:55.227Z,67.22
2022-10-28T01:11:19.021Z,67.34
2022-10-28T01:14:24.648Z,67.36
2022-10-28T01:17:48.015Z,67.43
2022-10-28T01:21:27.613Z,67.31
2022-10-28T01:24:31.795Z,67.37
2022-10-28T01:28:13.543Z,67.37
2022-10-28T01:31:20.699Z,67.54
2022-10-28T01:34:19.050Z,67.56
2022-10-28T01:37:15.576Z,67.36
2022-10-28T01:40:12.399Z,67.54
2022-10-28T01:43:12.225Z,67.65
2022-10-28T01:46:05.966Z,67.45
2022-10-28T01:48:58.806Z,67.35
2022-10-28T01:51:49.819Z,67.44
2022-10-28T01:54:40.597Z,67.36
2022-10-28T01:57:32.294Z,67.25
2022-10-28T02:00:20.459Z,67.20
2022-10-28T02:03:10.124Z,66.99
2022-10-28T02:06:02.592Z,67.15
2022-10-28T02:09:07.595Z,67.55
2022-10-28T02:12:20.012Z,67.49
2022-10-28T02:15:40.974Z,67.24
2022-10-28T02:18:44.450Z,67.50
2022-10-28T02:21:48.927Z,67.45
2022-10-28T02:24:48.707Z,67.45
2022-10-28T02:27:44.643Z,67.46
2022-10-28T02:30:38.469Z,67.37
2022-10-28T02:33:31.411Z,67.57
2022-10-28T02:36:20.641Z,67.65
2022-10-28T02:39:12.367Z,67.69
2022-10-28T02:42:08.195Z,67.53
2022-10-28T02:45:02.732Z,67.69
2022-10-28T02:47:55.752Z,67.55
2022-10-28T02:50:48.545Z,67.65
2022-10-28T02:53:51.713Z,67.68
2022-10-28T02:56:49.820Z,67.51
2022-10-28T02:59:37.625Z,67.66
2022-10-28T03:02:25.667Z,67.63
2022-10-28T03:05:14.380Z,67.70
2022-10-28T03:08:01.727Z,67.77
2022-10-28T03:10:49.225Z,67.68
2022-10-28T03:13:37.819Z,67.81
2022-10-28T03:16:26.722Z,67.62
2022-10-28T03:19:14.324Z,67.77
2022-10-28T03:22:01.856Z,67.76
2022-10-28T03:24:49.182Z,67.88
2022-10-28T03:27:36.738Z,67.87
2022-10-28T03:30:25.705Z,67.81
2022-10-28T03:33:13.448Z,67.95
2022-10-28T03:36:01.011Z,67.87
2022-10-28T03:38:48.328Z,67.82
2022-10-28T03:41:35.739Z,67.81
2022-10-28T03:44:23.028Z,67.83
2022-10-28T03:47:11.719Z,67.83
2022-10-28T03:49:59.293Z,67.79
2022-10-28T03:52:46.635Z,67.77
2022-10-28T03:55:34.175Z,67.90
2022-10-28T03:58:21.733Z,67.86
2022-10-28T04:01:09.912Z,67.90
2022-10-28T04:04:00.773Z,67.92
2022-10-28T04:06:48.171Z,67.80
2022-10-28T04:09:35.640Z,67.80
2022-10-28T04:12:23.154Z,67.90
2022-10-28T04:15:11.097Z,67.97
2022-10-28T04:17:58.791Z,67.97
2022-10-28T04:20:48.840Z,67.88
2022-10-28T04:23:36.358Z,67.98
2022-10-28T04:26:24.045Z,67.98
2022-10-28T04:29:11.648Z,67.83
2022-10-28T04:31:59.568Z,67.94
2022-10-28T04:34:46.823Z,67.84
2022-10-28T04:37:35.888Z,67.96
2022-10-28T04:40:23.617Z,68.00
2022-10-28T04:43:14.411Z,67.94
2022-10-28T04:46:06.128Z,67.92
2022-10-28T04:48:53.639Z,67.97
2022-10-28T04:51:41.079Z,67.91
2022-10-28T04:54:29.799Z,67.93
2022-10-28T04:57:17.329Z,67.87
2022-10-28T05:00:06.026Z,67.83
2022-10-28T05:02:54.254Z,67.88
2022-10-28T05:05:42.098Z,67.95
2022-10-28T05:08:30.153Z,67.89
2022-10-28T05:11:18.851Z,67.83
2022-10-28T05:14:06.713Z,67.79
2022-10-28T05:16:53.986Z,68.07
2022-10-28T05:19:42.312Z,67.64
2022-10-28T05:22:29.730Z,67.85
2022-10-28T05:25:17.865Z,68.08
2022-10-28T05:28:07.118Z,67.76
2022-10-28T05:30:54.857Z,67.71
2022-10-28T05:33:42.138Z,67.63
2022-10-28T05:36:29.612Z,67.77
2022-10-28T05:39:17.011Z,67.71
2022-10-28T05:42:07.972Z,67.69
2022-10-28T05:44:56.794Z,67.83
2022-10-28T05:47:45.474Z,67.76
2022-10-28T05:50:32.833Z,67.73
2022-10-28T05:53:20.267Z,67.76
2022-10-28T05:56:08.390Z,67.68
2022-10-28T05:58:55.782Z,67.68
2022-10-28T06:01:44.577Z,67.71
2022-10-28T06:04:33.454Z,67.58
2022-10-28T06:07:20.967Z,67.68
2022-10-28T06:10:11.700Z,67.65
2022-10-28T06:12:59.149Z,67.83
2022-10-28T06:15:51.903Z,67.75
2022-10-28T06:18:40.709Z,67.84
2022-10-28T06:21:28.546Z,67.71
2022-10-28T06:24:16.012Z,67.92
2022-10-28T06:27:03.900Z,67.68
2022-10-28T06:29:51.203Z,68.34
2022-10-28T06:32:39.059Z,67.97
2022-10-28T06:35:28.118Z,67.90
2022-10-28T06:38:15.702Z,68.01
2022-10-28T06:41:03.805Z,67.96
2022-10-28T06:43:51.407Z,67.86
2022-10-28T06:46:40.423Z,67.94
2022-10-28T06:49:28.803Z,67.84
2022-10-28T06:52:17.534Z,67.84
2022-10-28T06:55:05.673Z,67.80
2022-10-28T06:57:53.371Z,68.01
2022-10-28T07:00:43.841Z,67.75
2022-10-28T07:03:33.170Z,67.72
2022-10-28T07:06:20.515Z,67.84
2022-10-28T07:09:12.136Z,68.03
2022-10-28T07:12:04.930Z,68.22
2022-10-28T07:14:53.253Z,68.38
2022-10-28T07:17:41.958Z,68.45
2022-10-28T07:20:33.073Z,68.58
2022-10-28T07:23:21.126Z,68.83
2022-10-28T07:26:10.049Z,68.78
2022-10-28T07:28:58.049Z,68.83
2022-10-28T07:31:45.858Z,68.84
2022-10-28T07:34:35.631Z,68.43
2022-10-28T07:37:23.452Z,68.45
2022-10-28T07:40:11.879Z,68.45
2022-10-28T07:43:01.705Z,68.67
2022-10-28T07:45:49.438Z,68.62
2022-10-28T07:48:38.369Z,68.67
2022-10-28T07:51:26.189Z,68.56
2022-10-28T07:54:13.882Z,68.45
2022-10-28T07:57:01.691Z,68.42
2022-10-28T07:59:50.576Z,68.53
2022-10-28T08:02:38.695Z,68.64
2022-10-28T08:05:26.079Z,68.44
2022-10-28T08:08:13.716Z,68.54
2022-10-28T08:11:09.381Z,68.34
2022-10-28T08:14:00.260Z,68.11
2022-10-28T08:16:49.124Z,68.09
2022-10-28T08:19:36.755Z,67.73
2022-10-28T08:22:24.773Z,67.63
2022-10-28T08:25:15.419Z,67.26
2022-10-28T08:28:03.160Z,67.11
2022-10-28T08:31:04.090Z,66.86
2022-10-28T08:33:57.019Z,66.43
2022-10-28T08:36:44.673Z,65.97
2022-10-28T08:39:32.052Z,65.69
2022-10-28T08:42:37.379Z,65.17
2022-10-28T08:45:37.865Z,65.16
2022-10-28T08:48:32.781Z,64.42
2022-10-28T08:51:23.471Z,65.18
2022-10-28T08:54:19.934Z,63.97
2022-10-28T08:57:20.044Z,62.91
2022-10-28T09:00:18.230Z,62.21
2022-10-28T09:03:20.633Z,61.79
2022-10-28T09:06:10.436Z,61.20
2022-10-28T09:08:59.253Z,60.59
2022-10-28T09:12:02.848Z,59.95
2022-10-28T09:15:14.971Z,59.34
2022-10-28T09:18:15.834Z,58.59
2022-10-28T09:21:14.529Z,57.76
2022-10-28T09:24:17.830Z,57.35
2022-10-28T09:27:17.353Z,56.97
2022-10-28T09:30:32.242Z,56.48
2022-10-28T09:33:56.659Z,56.61
2022-10-28T09:36:48.911Z,56.29
2022-10-28T09:39:44.450Z,55.88
2022-10-28T09:42:41.853Z,55.52
2022-10-28T09:45:33.142Z,55.00
2022-10-28T09:48:25.258Z,54.81
2022-10-28T09:51:30.350Z,53.97
2022-10-28T09:54:18.684Z,53.82
2022-10-28T09:57:08.101Z,53.63
2022-10-28T09:59:55.881Z,53.36
2022-10-28T10:02:43.775Z,53.17
2022-10-28T10:05:32.533Z,53.04
2022-10-28T10:08:22.776Z,52.74
2022-10-28T10:11:25.659Z,52.51
2022-10-28T10:14:20.631Z,52.40
2022-10-28T10:17:15.833Z,52.14
2022-10-28T10:20:09.118Z,51.90
2022-10-28T10:22:57.313Z,51.57
2022-10-28T10:25:46.973Z,51.13
2022-10-28T10:28:38.417Z,50.70
2022-10-28T10:31:31.380Z,50.13
2022-10-28T10:34:26.852Z,49.81
2022-10-28T10:37:22.310Z,49.28
2022-10-28T10:40:22.794Z,48.73
2022-10-28T10:43:24.597Z,48.49
2022-10-28T10:46:18.060Z,48.94
2022-10-28T10:49:16.119Z,48.63
2022-10-28T10:52:08.232Z,48.67
2022-10-28T10:55:03.708Z,48.95
2022-10-28T10:57:53.183Z,49.29
2022-10-28T11:00:50.146Z,49.75
2022-10-28T11:03:41.457Z,49.96
2022-10-28T11:06:33.593Z,50.36
2022-10-28T11:09:30.094Z,50.81
2022-10-28T11:12:26.553Z,50.69
2022-10-28T11:15:26.061Z,51.43
2022-10-28T11:18:21.109Z,51.51
2022-10-28T11:24:37.356Z,52.53
2022-10-28T11:27:40.022Z,53.16
2022-10-28T11:30:40.070Z,53.17
2022-10-28T11:33:39.139Z,53.42
2022-10-28T11:36:36.444Z,53.50
2022-10-28T11:39:34.959Z,54.05
2022-10-28T11:42:33.373Z,54.10
2022-10-28T11:45:32.235Z,54.80
2022-10-28T11:48:40.701Z,54.90
2022-10-28T11:51:43.298Z,55.41
2022-10-28T11:54:53.775Z,55.35
2022-10-28T11:57:59.984Z,55.74
2022-10-28T12:01:10.712Z,55.99
2022-10-28T12:04:13.776Z,56.02
2022-10-28T12:08:04.088Z,56.26
2022-10-28T12:11:12.584Z,55.80
2022-10-28T12:14:11.773Z,55.81
2022-10-28T12:17:06.689Z,55.37
2022-10-28T12:20:00.990Z,55.24
2022-10-28T12:22:52.987Z,54.85
2022-10-28T12:25:45.108Z,54.60
2022-10-28T12:28:43.330Z,54.68
2022-10-28T12:31:35.859Z,54.59
2022-10-28T12:34:31.239Z,54.41
2022-10-28T12:37:23.199Z,54.72
2022-10-28T12:40:20.839Z,54.53
2022-10-28T12:43:16.883Z,54.83
2022-10-28T12:46:07.316Z,54.39
2022-10-28T12:48:59.846Z,54.11
2022-10-28T12:51:47.960Z,54.20
2022-10-28T12:54:52.775Z,53.95
2022-10-28T12:57:43.814Z,54.39
2022-10-28T13:00:36.540Z,54.27
2022-10-28T13:03:25.378Z,53.69
2022-10-28T13:06:47.073Z,53.66
2022-10-28T13:09:54.303Z,53.88
2022-10-28T13:13:18.163Z,54.36
2022-10-28T13:16:30.780Z,54.23
2022-10-28T13:19:43.088Z,54.33
2022-10-28T13:22:57.811Z,54.09
2022-10-28T13:26:07.344Z,54.19
2022-10-28T13:28:58.723Z,53.88
2022-10-28T13:31:47.878Z,53.99
2022-10-28T13:34:41.931Z,53.20
2022-10-28T13:37:36.912Z,53.60
2022-10-28T13:41:10.540Z,53.26
2022-10-28T13:44:15.271Z,53.57
2022-10-28T13:47:31.750Z,53.44
2022-10-28T13:50:44.527Z,53.52
2022-10-28T13:53:41.732Z,53.75
2022-10-28T13:56:49.216Z,53.76
2022-10-28T13:59:54.699Z,53.68
2022-10-28T14:02:47.828Z,53.63
2022-10-28T14:06:00.803Z,53.74
2022-10-28T14:08:48.310Z,54.02
2022-10-28T14:11:35.722Z,54.14
2022-10-28T14:14:23.020Z,54.11
2022-10-28T14:17:23.184Z,53.82
2022-10-28T14:20:34.916Z,53.49
2022-10-28T14:24:11.598Z,53.93
2022-10-28T14:27:42.804Z,53.69
2022-10-28T14:30:30.326Z,53.55
2022-10-28T14:33:23.344Z,53.89
2022-10-28T14:36:30.699Z,53.32
2022-10-28T14:39:37.529Z,53.65
2022-10-28T14:42:43.382Z,53.92
2022-10-28T14:45:42.015Z,54.33
2022-10-28T14:48:49.754Z,54.58
2022-10-28T14:51:42.488Z,54.78
2022-10-28T14:54:40.946Z,54.72
2022-10-28T14:57:33.689Z,54.66
2022-10-28T15:00:26.013Z,55.19
2022-10-28T15:03:14.262Z,55.11
2022-10-28T15:06:18.747Z,54.99
2022-10-28T15:09:18.317Z,54.98
2022-10-28T15:12:10.338Z,55.27
2022-10-28T15:14:58.859Z,54.98
2022-10-28T15:17:46.336Z,55.25
2022-10-28T15:20:36.535Z,54.87
2022-10-28T15:23:25.343Z,54.98
2022-10-28T15:26:14.660Z,55.05
2022-10-28T15:29:04.060Z,55.03
2022-10-28T15:32:08.679Z,55.23
2022-10-28T15:34:59.521Z,55.28
2022-10-28T15:37:47.238Z,55.34
2022-10-28T15:40:37.936Z,55.45
2022-10-28T15:43:28.484Z,55.71
2022-10-28T15:46:18.637Z,55.31
2022-10-28T15:49:06.105Z,55.20
2022-10-28T15:52:34.291Z,55.15
2022-10-28T15:56:06.599Z,55.14
2022-10-28T15:59:10.206Z,55.55
2022-10-28T16:01:59.532Z,55.65
2022-10-28T16:04:47.246Z,55.96
2022-10-28T16:07:34.707Z,55.60
2022-10-28T16:10:22.098Z,55.77
2022-10-28T16:13:18.453Z,55.92
2022-10-28T16:16:09.495Z,55.85
2022-10-28T16:19:07.826Z,56.19
2022-10-28T16:21:55.623Z,55.89
2022-10-28T16:24:43.227Z,56.18
2022-10-28T16:27:33.559Z,56.15
2022-10-28T16:33:13.494Z,55.80
2022-10-28T16:36:03.867Z,55.91
2022-10-28T16:38:51.596Z,56.08
2022-10-28T16:41:40.754Z,56.07
2022-10-28T16:44:29.731Z,56.21
2022-10-28T16:47:19.328Z,56.42
2022-10-28T16:50:07.709Z,56.28
2022-10-28T16:52:56.679Z,56.78
2022-10-28T16:55:44.099Z,56.66
2022-10-28T16:58:32.311Z,56.96
2022-10-28T17:01:24.152Z,56.97
2022-10-28T17:04:11.745Z,56.95
2022-10-28T17:06:59.039Z,56.98
2022-10-28T17:09:47.736Z,57.27
2022-10-28T17:12:35.313Z,57.10
2022-10-28T17:15:22.876Z,57.39
2022-10-28T17:18:12.318Z,57.43
2022-10-28T17:21:03.526Z,57.58
2022-10-28T17:23:51.273Z,57.44
2022-10-28T17:26:40.226Z,57.54
2022-10-28T17:29:29.854Z,57.64
2022-10-28T17:32:17.260Z,57.74
2022-10-28T17:35:05.072Z,57.83
2022-10-28T17:37:53.143Z,58.16
2022-10-28T17:40:40.629Z,57.99
2022-10-28T17:43:30.011Z,57.89
2022-10-28T17:46:17.384Z,58.00
2022-10-28T17:49:08.722Z,58.24
2022-10-28T17:51:56.250Z,58.24
2022-10-28T17:54:43.625Z,58.21
2022-10-28T17:57:37.602Z,58.00
2022-10-28T18:00:36.938Z,58.15
2022-10-28T18:03:24.157Z,58.13
2022-10-28T18:06:15.729Z,57.88
2022-10-28T18:09:03.792Z,57.95
2022-10-28T18:11:52.942Z,57.86
2022-10-28T18:14:40.999Z,58.10
2022-10-28T18:17:30.099Z,57.71
2022-10-28T18:20:17.714Z,57.91
2022-10-28T18:23:05.156Z,58.21
2022-10-28T18:26:00.133Z,58.12
2022-10-28T18:28:47.493Z,58.04
2022-10-28T18:31:36.225Z,58.06
2022-10-28T18:34:25.429Z,58.07
2022-10-28T18:37:13.112Z,58.31
2022-10-28T18:40:00.933Z,58.28
2022-10-28T18:42:49.090Z,58.38
2022-10-28T18:45:38.091Z,58.60
2022-10-28T18:48:28.489Z,58.46
2022-10-28T18:51:18.072Z,58.57
2022-10-28T18:54:06.197Z,58.39
2022-10-28T18:56:57.432Z,58.55
2022-10-28T19:00:16.966Z,58.33
2022-10-28T19:05:42.559Z,58.71
2022-10-28T19:08:31.341Z,58.79
2022-10-28T19:11:19.391Z,58.52
2022-10-28T19:14:08.543Z,58.54
2022-10-28T19:16:56.342Z,58.32
2022-10-28T19:19:43.692Z,58.26
2022-10-28T19:22:31.224Z,58.43
2022-10-28T19:25:22.954Z,58.35
2022-10-28T19:28:10.360Z,58.43
2022-10-28T19:31:03.118Z,58.60
2022-10-28T19:33:54.088Z,58.32
2022-10-28T19:36:42.131Z,58.88
2022-10-28T19:39:29.767Z,58.74
2022-10-28T19:42:21.579Z,58.62
2022-10-28T19:45:11.058Z,58.93
2022-10-28T19:48:02.683Z,59.16
2022-10-28T19:50:51.056Z,59.08
2022-10-28T19:53:38.661Z,58.96
2022-10-28T19:56:26.922Z,58.93
2022-10-28T19:59:16.983Z,59.43
2022-10-28T20:02:04.781Z,59.46
2022-10-28T20:04:57.181Z,59.55
2022-10-28T20:07:44.835Z,59.84
2022-10-28T20:10:33.440Z,59.86
2022-10-28T20:13:23.294Z,59.95
2022-10-28T20:16:15.705Z,60.01
2022-10-28T20:19:03.504Z,60.09
2022-10-28T20:21:51.407Z,59.93
2022-10-28T20:24:42.241Z,60.38
2022-10-28T20:27:29.823Z,60.32
2022-10-28T20:30:17.910Z,60.51
2022-10-28T20:33:08.471Z,60.57
2022-10-28T20:35:56.869Z,60.78
2022-10-28T20:38:44.353Z,60.75
2022-10-28T20:41:34.706Z,60.91
2022-10-28T20:44:22.500Z,60.62
2022-10-28T20:47:10.036Z,60.61
2022-10-28T20:49:59.321Z,60.67
2022-10-28T20:52:47.107Z,60.51
2022-10-28T20:55:34.708Z,60.74
2022-10-28T20:58:28.787Z,60.96
2022-10-28T21:01:19.365Z,60.66
2022-10-28T21:04:11.918Z,61.05
2022-10-28T21:07:00.892Z,60.92
2022-10-28T21:09:49.624Z,60.95
2022-10-28T21:12:37.498Z,60.94
2022-10-28T21:15:25.098Z,61.07
2022-10-28T21:18:13.068Z,60.92
2022-10-28T21:21:01.428Z,61.34
2022-10-28T21:23:50.336Z,61.20
2022-10-28T21:26:38.151Z,61.36
2022-10-28T21:29:25.736Z,61.10
2022-10-28T21:32:13.216Z,61.03
2022-10-28T21:35:01.120Z,61.29
2022-10-28T21:37:48.823Z,61.26
2022-10-28T21:40:37.683Z,61.37
2022-10-28T21:43:29.926Z,61.39
2022-10-28T21:46:17.868Z,61.17
2022-10-28T21:49:05.592Z,61.52
2022-10-28T21:51:53.119Z,61.16
2022-10-28T21:54:40.654Z,61.49
2022-10-28T21:57:35.470Z,61.58
2022-10-28T22:00:23.392Z,61.62
2022-10-28T22:03:11.947Z,61.59
2022-10-28T22:05:59.370Z,61.68
2022-10-28T22:08:47.009Z,61.75
2022-10-28T22:11:34.528Z,61.94
2022-10-28T22:14:23.314Z,61.82
2022-10-28T22:17:11.026Z,61.95
2022-10-28T22:19:58.637Z,61.88
2022-10-28T22:22:46.185Z,61.99
2022-10-28T22:25:33.680Z,61.85
2022-10-28T22:28:21.264Z,62.14
2022-10-28T22:31:13.315Z,62.32
2022-10-28T22:34:01.569Z,61.82
2022-10-28T22:36:49.996Z,62.27
2022-10-28T22:39:37.588Z,62.45
2022-10-28T22:42:27.566Z,62.34
2022-10-28T22:45:15.615Z,62.40
2022-10-28T22:48:04.956Z,62.49
2022-10-28T22:50:52.778Z,62.42
2022-10-28T22:53:41.548Z,62.40
2022-10-28T22:56:29.140Z,62.74
2022-10-28T22:59:16.670Z,62.42
2022-10-28T23:02:04.343Z,62.41
2022-10-28T23:04:53.657Z,62.42
2022-10-28T23:07:41.253Z,62.18
2022-10-28T23:10:30.120Z,62.17
2022-10-28T23:13:17.404Z,62.27
2022-10-28T23:16:06.352Z,62.51
2022-10-28T23:18:56.123Z,62.58
2022-10-28T23:21:44.990Z,62.33
2022-10-28T23:24:32.851Z,62.46
2022-10-28T23:27:20.090Z,62.21
2022-10-28T23:30:10.350Z,62.40
2022-10-28T23:32:59.212Z,62.93
2022-10-28T23:35:54.165Z,62.61
2022-10-28T23:38:43.518Z,62.38
2022-10-28T23:41:31.161Z,62.43
2022-10-28T23:44:18.817Z,62.66
2022-10-28T23:47:06.158Z,62.95
2022-10-28T23:49:54.102Z,62.78
2022-10-28T23:52:41.688Z,62.99
2022-10-28T23:55:30.663Z,62.83
2022-10-28T23:58:20.817Z,62.87
